sensor_id;sensor_type;location;lat;lon;timestamp;P1;durP1;ratioP1;P2;durP2;ratioP2
13588;SDS011;6865;52.552;13.434;2023-11-18T00:00:55;5.93;;;5.07;;
13588;SDS011;6865;52.552;13.434;2023-11-18T00:03:22;7.07;;;5.63;;
13588;SDS011;6865;52.552;13.434;2023-11-18T00:05:49;6.40;;;5.40;;
13588;SDS011;6865;52.552;13.434;2023-11-18T00:08:16;6.20;;;5.00;;
13588;SDS011;6865;52.552;13.434;2023-11-18T00:10:42;7.77;;;5.33;;
13588;SDS011;6865;52.552;13.434;2023-11-18T00:13:09;7.33;;;5.80;;
13588;SDS011;6865;52.552;13.434;2023-11-18T00:15:36;9.20;;;5.53;;
13588;SDS011;6865;52.552;13.434;2023-11-18T00:18:02;7.10;;;5.63;;
13588;SDS011;6865;52.552;13.434;2023-11-18T00:20:29;8.13;;;5.57;;
13588;SDS011;6865;52.552;13.434;2023-11-18T00:22:57;7.77;;;5.23;;
13588;SDS011;6865;52.552;13.434;2023-11-18T00:25:24;6.70;;;5.77;;
13588;SDS011;6865;52.552;13.434;2023-11-18T00:27:51;6.63;;;5.57;;
13588;SDS011;6865;52.552;13.434;2023-11-18T00:30:17;6.93;;;5.37;;
13588;SDS011;6865;52.552;13.434;2023-11-18T00:32:44;6.23;;;5.07;;
13588;SDS011;6865;52.552;13.434;2023-11-18T00:35:11;8.73;;;5.80;;
13588;SDS011;6865;52.552;13.434;2023-11-18T00:37:38;6.70;;;5.53;;
13588;SDS011;6865;52.552;13.434;2023-11-18T00:40:05;7.30;;;5.43;;
13588;SDS011;6865;52.552;13.434;2023-11-18T00:42:33;8.30;;;5.60;;
13588;SDS011;6865;52.552;13.434;2023-11-18T00:45:00;6.77;;;5.57;;
13588;SDS011;6865;52.552;13.434;2023-11-18T00:47:27;5.80;;;5.20;;
13588;SDS011;6865;52.552;13.434;2023-11-18T00:49:54;7.53;;;5.83;;
13588;SDS011;6865;52.552;13.434;2023-11-18T00:52:21;6.10;;;5.50;;
13588;SDS011;6865;52.552;13.434;2023-11-18T00:54:48;7.47;;;5.50;;
13588;SDS011;6865;52.552;13.434;2023-11-18T00:57:14;7.80;;;5.90;;
13588;SDS011;6865;52.552;13.434;2023-11-18T00:59:41;6.23;;;5.43;;
13588;SDS011;6865;52.552;13.434;2023-11-18T01:02:09;6.37;;;5.73;;
13588;SDS011;6865;52.552;13.434;2023-11-18T01:04:37;6.83;;;6.03;;
13588;SDS011;6865;52.552;13.434;2023-11-18T01:07:05;8.50;;;5.83;;
13588;SDS011;6865;52.552;13.434;2023-11-18T01:09:31;9.20;;;5.53;;
13588;SDS011;6865;52.552;13.434;2023-11-18T01:12:03;6.40;;;5.47;;
13588;SDS011;6865;52.552;13.434;2023-11-18T01:14:34;7.23;;;5.50;;
13588;SDS011;6865;52.552;13.434;2023-11-18T01:17:05;6.77;;;5.13;;
13588;SDS011;6865;52.552;13.434;2023-11-18T01:19:32;6.83;;;5.50;;
13588;SDS011;6865;52.552;13.434;2023-11-18T01:22:00;5.93;;;5.10;;
13588;SDS011;6865;52.552;13.434;2023-11-18T01:24:27;6.60;;;5.00;;
13588;SDS011;6865;52.552;13.434;2023-11-18T01:26:54;6.03;;;5.03;;
13588;SDS011;6865;52.552;13.434;2023-11-18T01:29:21;6.57;;;5.10;;
13588;SDS011;6865;52.552;13.434;2023-11-18T01:31:48;7.70;;;5.50;;
13588;SDS011;6865;52.552;13.434;2023-11-18T01:34:18;6.23;;;5.17;;
13588;SDS011;6865;52.552;13.434;2023-11-18T01:36:48;7.47;;;5.43;;
13588;SDS011;6865;52.552;13.434;2023-11-18T01:39:16;6.67;;;5.23;;
13588;SDS011;6865;52.552;13.434;2023-11-18T01:41:47;7.27;;;5.17;;
13588;SDS011;6865;52.552;13.434;2023-11-18T01:44:15;7.03;;;5.70;;
13588;SDS011;6865;52.552;13.434;2023-11-18T01:46:41;6.90;;;5.70;;
13588;SDS011;6865;52.552;13.434;2023-11-18T01:49:12;6.63;;;5.67;;
13588;SDS011;6865;52.552;13.434;2023-11-18T01:51:41;5.93;;;5.30;;
13588;SDS011;6865;52.552;13.434;2023-11-18T01:54:09;9.80;;;4.93;;
13588;SDS011;6865;52.552;13.434;2023-11-18T01:56:43;5.17;;;4.63;;
13588;SDS011;6865;52.552;13.434;2023-11-18T01:59:12;6.70;;;4.70;;
13588;SDS011;6865;52.552;13.434;2023-11-18T02:01:48;6.73;;;5.00;;
13588;SDS011;6865;52.552;13.434;2023-11-18T02:04:17;6.27;;;5.00;;
13588;SDS011;6865;52.552;13.434;2023-11-18T02:06:49;6.97;;;5.20;;
13588;SDS011;6865;52.552;13.434;2023-11-18T02:09:20;7.43;;;5.13;;
13588;SDS011;6865;52.552;13.434;2023-11-18T02:11:57;6.37;;;5.30;;
13588;SDS011;6865;52.552;13.434;2023-11-18T02:14:27;5.57;;;4.73;;
13588;SDS011;6865;52.552;13.434;2023-11-18T02:16:56;6.70;;;4.63;;
13588;SDS011;6865;52.552;13.434;2023-11-18T02:19:26;5.93;;;5.30;;
13588;SDS011;6865;52.552;13.434;2023-11-18T02:21:56;8.77;;;4.83;;
13588;SDS011;6865;52.552;13.434;2023-11-18T02:24:33;7.00;;;5.23;;
13588;SDS011;6865;52.552;13.434;2023-11-18T02:27:03;6.50;;;5.00;;
13588;SDS011;6865;52.552;13.434;2023-11-18T02:29:39;7.23;;;4.93;;
13588;SDS011;6865;52.552;13.434;2023-11-18T02:32:18;6.20;;;5.10;;
13588;SDS011;6865;52.552;13.434;2023-11-18T02:35:15;7.70;;;5.00;;
13588;SDS011;6865;52.552;13.434;2023-11-18T02:37:55;7.07;;;5.43;;
13588;SDS011;6865;52.552;13.434;2023-11-18T02:40:28;6.53;;;5.13;;
13588;SDS011;6865;52.552;13.434;2023-11-18T02:42:59;6.10;;;4.67;;
13588;SDS011;6865;52.552;13.434;2023-11-18T02:45:28;7.73;;;5.40;;
13588;SDS011;6865;52.552;13.434;2023-11-18T02:47:54;6.80;;;5.50;;
13588;SDS011;6865;52.552;13.434;2023-11-18T02:50:24;6.33;;;5.10;;
13588;SDS011;6865;52.552;13.434;2023-11-18T02:52:51;5.87;;;4.70;;
13588;SDS011;6865;52.552;13.434;2023-11-18T02:55:17;7.07;;;5.30;;
13588;SDS011;6865;52.552;13.434;2023-11-18T02:57:44;7.17;;;5.20;;
13588;SDS011;6865;52.552;13.434;2023-11-18T03:00:11;9.13;;;5.33;;
13588;SDS011;6865;52.552;13.434;2023-11-18T03:02:44;6.80;;;5.53;;
13588;SDS011;6865;52.552;13.434;2023-11-18T03:05:13;6.87;;;5.23;;
13588;SDS011;6865;52.552;13.434;2023-11-18T03:07:41;7.60;;;5.20;;
13588;SDS011;6865;52.552;13.434;2023-11-18T03:10:08;6.10;;;5.13;;
13588;SDS011;6865;52.552;13.434;2023-11-18T03:12:47;7.93;;;5.50;;
13588;SDS011;6865;52.552;13.434;2023-11-18T03:15:18;6.60;;;5.00;;
13588;SDS011;6865;52.552;13.434;2023-11-18T03:17:46;6.70;;;5.10;;
13588;SDS011;6865;52.552;13.434;2023-11-18T03:20:15;6.23;;;4.80;;
13588;SDS011;6865;52.552;13.434;2023-11-18T03:22:43;6.40;;;5.27;;
13588;SDS011;6865;52.552;13.434;2023-11-18T03:25:14;5.63;;;4.40;;
13588;SDS011;6865;52.552;13.434;2023-11-18T03:27:41;8.17;;;4.97;;
13588;SDS011;6865;52.552;13.434;2023-11-18T03:30:08;6.63;;;5.10;;
13588;SDS011;6865;52.552;13.434;2023-11-18T03:32:35;6.93;;;5.10;;
13588;SDS011;6865;52.552;13.434;2023-11-18T03:35:03;5.93;;;4.93;;
13588;SDS011;6865;52.552;13.434;2023-11-18T03:37:35;8.20;;;4.93;;
13588;SDS011;6865;52.552;13.434;2023-11-18T03:40:06;7.73;;;5.63;;
13588;SDS011;6865;52.552;13.434;2023-11-18T03:42:36;5.50;;;4.43;;
13588;SDS011;6865;52.552;13.434;2023-11-18T03:45:03;5.53;;;4.80;;
13588;SDS011;6865;52.552;13.434;2023-11-18T03:47:31;6.60;;;4.70;;
13588;SDS011;6865;52.552;13.434;2023-11-18T03:49:58;6.23;;;4.40;;
13588;SDS011;6865;52.552;13.434;2023-11-18T03:52:25;7.40;;;4.53;;
13588;SDS011;6865;52.552;13.434;2023-11-18T03:54:52;6.20;;;4.73;;
13588;SDS011;6865;52.552;13.434;2023-11-18T03:57:18;5.30;;;4.37;;
13588;SDS011;6865;52.552;13.434;2023-11-18T03:59:45;9.17;;;4.50;;
13588;SDS011;6865;52.552;13.434;2023-11-18T04:02:12;6.83;;;4.80;;
13588;SDS011;6865;52.552;13.434;2023-11-18T04:04:38;7.13;;;4.07;;
13588;SDS011;6865;52.552;13.434;2023-11-18T04:07:05;4.53;;;3.97;;
13588;SDS011;6865;52.552;13.434;2023-11-18T04:09:32;5.43;;;4.27;;
13588;SDS011;6865;52.552;13.434;2023-11-18T04:11:59;5.47;;;4.03;;
13588;SDS011;6865;52.552;13.434;2023-11-18T04:14:26;4.90;;;3.80;;
13588;SDS011;6865;52.552;13.434;2023-11-18T04:16:53;5.67;;;4.00;;
13588;SDS011;6865;52.552;13.434;2023-11-18T04:19:21;4.70;;;3.80;;
13588;SDS011;6865;52.552;13.434;2023-11-18T04:21:47;6.03;;;4.17;;
13588;SDS011;6865;52.552;13.434;2023-11-18T04:24:15;5.50;;;4.30;;
13588;SDS011;6865;52.552;13.434;2023-11-18T04:26:42;5.63;;;4.60;;
13588;SDS011;6865;52.552;13.434;2023-11-18T04:29:08;5.47;;;4.27;;
13588;SDS011;6865;52.552;13.434;2023-11-18T04:31:35;5.97;;;4.47;;
13588;SDS011;6865;52.552;13.434;2023-11-18T04:34:03;7.67;;;4.80;;
13588;SDS011;6865;52.552;13.434;2023-11-18T04:36:32;5.73;;;4.47;;
13588;SDS011;6865;52.552;13.434;2023-11-18T04:38:59;6.00;;;4.60;;
13588;SDS011;6865;52.552;13.434;2023-11-18T04:41:26;6.90;;;5.30;;
13588;SDS011;6865;52.552;13.434;2023-11-18T04:43:52;6.17;;;4.67;;
13588;SDS011;6865;52.552;13.434;2023-11-18T04:46:19;6.37;;;5.00;;
13588;SDS011;6865;52.552;13.434;2023-11-18T04:48:48;7.10;;;5.20;;
13588;SDS011;6865;52.552;13.434;2023-11-18T04:51:15;5.60;;;4.83;;
13588;SDS011;6865;52.552;13.434;2023-11-18T04:53:43;7.60;;;5.30;;
13588;SDS011;6865;52.552;13.434;2023-11-18T04:56:11;6.83;;;5.20;;
13588;SDS011;6865;52.552;13.434;2023-11-18T04:58:38;6.13;;;5.10;;
13588;SDS011;6865;52.552;13.434;2023-11-18T05:01:05;6.47;;;4.93;;
13588;SDS011;6865;52.552;13.434;2023-11-18T05:03:32;7.80;;;5.10;;
13588;SDS011;6865;52.552;13.434;2023-11-18T05:05:59;8.03;;;5.50;;
13588;SDS011;6865;52.552;13.434;2023-11-18T05:08:25;8.03;;;5.00;;
13588;SDS011;6865;52.552;13.434;2023-11-18T05:10:52;6.67;;;5.00;;
13588;SDS011;6865;52.552;13.434;2023-11-18T05:13:20;6.70;;;5.03;;
13588;SDS011;6865;52.552;13.434;2023-11-18T05:15:48;9.27;;;5.13;;
13588;SDS011;6865;52.552;13.434;2023-11-18T05:18:16;7.27;;;5.37;;
13588;SDS011;6865;52.552;13.434;2023-11-18T05:20:43;7.13;;;5.53;;
13588;SDS011;6865;52.552;13.434;2023-11-18T05:23:10;7.13;;;5.77;;
13588;SDS011;6865;52.552;13.434;2023-11-18T05:25:41;8.53;;;5.80;;
13588;SDS011;6865;52.552;13.434;2023-11-18T05:28:12;7.93;;;5.90;;
13588;SDS011;6865;52.552;13.434;2023-11-18T05:30:41;7.80;;;5.73;;
13588;SDS011;6865;52.552;13.434;2023-11-18T05:33:09;8.03;;;5.80;;
13588;SDS011;6865;52.552;13.434;2023-11-18T05:35:41;6.87;;;5.90;;
13588;SDS011;6865;52.552;13.434;2023-11-18T05:38:18;7.40;;;6.13;;
13588;SDS011;6865;52.552;13.434;2023-11-18T05:40:48;8.13;;;5.70;;
13588;SDS011;6865;52.552;13.434;2023-11-18T05:43:26;7.30;;;5.97;;
13588;SDS011;6865;52.552;13.434;2023-11-18T05:45:57;7.97;;;5.90;;
13588;SDS011;6865;52.552;13.434;2023-11-18T05:48:43;8.93;;;6.13;;
13588;SDS011;6865;52.552;13.434;2023-11-18T05:51:10;7.73;;;5.77;;
13588;SDS011;6865;52.552;13.434;2023-11-18T05:53:40;9.43;;;6.27;;
13588;SDS011;6865;52.552;13.434;2023-11-18T05:56:10;8.93;;;6.17;;
13588;SDS011;6865;52.552;13.434;2023-11-18T05:58:40;7.37;;;5.67;;
13588;SDS011;6865;52.552;13.434;2023-11-18T06:01:07;7.80;;;5.87;;
13588;SDS011;6865;52.552;13.434;2023-11-18T06:03:34;7.53;;;5.47;;
13588;SDS011;6865;52.552;13.434;2023-11-18T06:06:09;8.40;;;6.63;;
13588;SDS011;6865;52.552;13.434;2023-11-18T06:08:38;9.37;;;6.13;;
13588;SDS011;6865;52.552;13.434;2023-11-18T06:11:08;10.53;;;6.33;;
13588;SDS011;6865;52.552;13.434;2023-11-18T06:13:44;9.93;;;6.50;;
13588;SDS011;6865;52.552;13.434;2023-11-18T06:16:16;10.27;;;6.47;;
13588;SDS011;6865;52.552;13.434;2023-11-18T06:18:51;8.53;;;6.33;;
13588;SDS011;6865;52.552;13.434;2023-11-18T06:21:22;9.37;;;6.70;;
13588;SDS011;6865;52.552;13.434;2023-11-18T06:23:56;9.50;;;6.40;;
13588;SDS011;6865;52.552;13.434;2023-11-18T06:26:24;9.97;;;6.97;;
13588;SDS011;6865;52.552;13.434;2023-11-18T06:28:53;8.73;;;6.53;;
13588;SDS011;6865;52.552;13.434;2023-11-18T06:31:20;9.17;;;7.17;;
13588;SDS011;6865;52.552;13.434;2023-11-18T06:33:49;10.13;;;6.77;;
13588;SDS011;6865;52.552;13.434;2023-11-18T06:36:17;8.97;;;7.17;;
13588;SDS011;6865;52.552;13.434;2023-11-18T06:38:51;10.03;;;7.93;;
13588;SDS011;6865;52.552;13.434;2023-11-18T06:41:19;14.83;;;8.40;;
13588;SDS011;6865;52.552;13.434;2023-11-18T06:43:50;11.70;;;7.47;;
13588;SDS011;6865;52.552;13.434;2023-11-18T06:46:32;12.83;;;8.20;;
13588;SDS011;6865;52.552;13.434;2023-11-18T06:49:03;10.30;;;7.53;;
13588;SDS011;6865;52.552;13.434;2023-11-18T06:51:31;12.30;;;7.57;;
13588;SDS011;6865;52.552;13.434;2023-11-18T06:54:02;9.00;;;7.10;;
13588;SDS011;6865;52.552;13.434;2023-11-18T06:56:37;9.17;;;7.50;;
13588;SDS011;6865;52.552;13.434;2023-11-18T06:59:10;11.57;;;7.57;;
13588;SDS011;6865;52.552;13.434;2023-11-18T07:01:39;9.47;;;7.30;;
13588;SDS011;6865;52.552;13.434;2023-11-18T07:04:10;9.30;;;7.07;;
13588;SDS011;6865;52.552;13.434;2023-11-18T07:06:37;9.17;;;6.93;;
13588;SDS011;6865;52.552;13.434;2023-11-18T07:09:08;9.83;;;7.47;;
13588;SDS011;6865;52.552;13.434;2023-11-18T07:11:40;9.63;;;7.40;;
13588;SDS011;6865;52.552;13.434;2023-11-18T07:14:07;9.43;;;7.10;;
13588;SDS011;6865;52.552;13.434;2023-11-18T07:16:35;8.03;;;6.37;;
13588;SDS011;6865;52.552;13.434;2023-11-18T07:19:03;10.00;;;6.60;;
13588;SDS011;6865;52.552;13.434;2023-11-18T07:21:30;9.67;;;7.37;;
13588;SDS011;6865;52.552;13.434;2023-11-18T07:23:57;8.33;;;7.03;;
13588;SDS011;6865;52.552;13.434;2023-11-18T07:26:23;9.97;;;7.47;;
13588;SDS011;6865;52.552;13.434;2023-11-18T07:28:50;11.17;;;7.13;;
13588;SDS011;6865;52.552;13.434;2023-11-18T07:31:18;8.70;;;6.70;;
13588;SDS011;6865;52.552;13.434;2023-11-18T07:33:45;10.37;;;7.23;;
13588;SDS011;6865;52.552;13.434;2023-11-18T07:36:15;10.00;;;7.70;;
13588;SDS011;6865;52.552;13.434;2023-11-18T07:38:42;9.87;;;7.17;;
13588;SDS011;6865;52.552;13.434;2023-11-18T07:41:09;8.77;;;6.90;;
13588;SDS011;6865;52.552;13.434;2023-11-18T07:43:38;11.50;;;7.60;;
13588;SDS011;6865;52.552;13.434;2023-11-18T07:46:07;9.30;;;6.93;;
13588;SDS011;6865;52.552;13.434;2023-11-18T07:48:34;9.23;;;7.33;;
13588;SDS011;6865;52.552;13.434;2023-11-18T07:51:01;8.90;;;6.23;;
13588;SDS011;6865;52.552;13.434;2023-11-18T07:53:28;10.20;;;7.50;;
13588;SDS011;6865;52.552;13.434;2023-11-18T07:55:55;9.87;;;7.33;;
13588;SDS011;6865;52.552;13.434;2023-11-18T07:58:22;11.60;;;7.83;;
13588;SDS011;6865;52.552;13.434;2023-11-18T08:00:49;11.17;;;7.93;;
13588;SDS011;6865;52.552;13.434;2023-11-18T08:03:16;11.30;;;7.57;;
13588;SDS011;6865;52.552;13.434;2023-11-18T08:05:44;9.57;;;7.07;;
13588;SDS011;6865;52.552;13.434;2023-11-18T08:08:14;10.23;;;7.37;;
13588;SDS011;6865;52.552;13.434;2023-11-18T08:10:43;10.47;;;7.50;;
13588;SDS011;6865;52.552;13.434;2023-11-18T08:13:10;12.90;;;7.67;;
13588;SDS011;6865;52.552;13.434;2023-11-18T08:15:38;8.90;;;6.90;;
13588;SDS011;6865;52.552;13.434;2023-11-18T08:18:08;10.50;;;6.63;;
13588;SDS011;6865;52.552;13.434;2023-11-18T08:20:38;10.87;;;7.77;;
13588;SDS011;6865;52.552;13.434;2023-11-18T08:23:05;10.77;;;7.50;;
13588;SDS011;6865;52.552;13.434;2023-11-18T08:25:32;11.63;;;8.53;;
13588;SDS011;6865;52.552;13.434;2023-11-18T08:28:03;11.53;;;7.90;;
13588;SDS011;6865;52.552;13.434;2023-11-18T08:30:30;9.77;;;7.27;;
13588;SDS011;6865;52.552;13.434;2023-11-18T08:33:00;8.50;;;6.03;;
13588;SDS011;6865;52.552;13.434;2023-11-18T08:35:31;9.53;;;6.87;;
13588;SDS011;6865;52.552;13.434;2023-11-18T08:37:58;10.77;;;6.80;;
13588;SDS011;6865;52.552;13.434;2023-11-18T08:40:25;7.50;;;6.00;;
13588;SDS011;6865;52.552;13.434;2023-11-18T08:42:52;7.93;;;5.63;;
13588;SDS011;6865;52.552;13.434;2023-11-18T08:45:23;10.13;;;6.20;;
13588;SDS011;6865;52.552;13.434;2023-11-18T08:47:58;9.17;;;5.97;;
13588;SDS011;6865;52.552;13.434;2023-11-18T08:50:37;8.90;;;5.10;;
13588;SDS011;6865;52.552;13.434;2023-11-18T08:53:06;7.50;;;5.40;;
13588;SDS011;6865;52.552;13.434;2023-11-18T08:55:36;10.77;;;5.83;;
13588;SDS011;6865;52.552;13.434;2023-11-18T08:58:10;9.53;;;5.53;;
13588;SDS011;6865;52.552;13.434;2023-11-18T09:00:55;6.17;;;4.80;;
13588;SDS011;6865;52.552;13.434;2023-11-18T09:03:31;7.00;;;5.47;;
13588;SDS011;6865;52.552;13.434;2023-11-18T09:06:05;7.43;;;5.77;;
13588;SDS011;6865;52.552;13.434;2023-11-18T09:08:44;6.10;;;4.90;;
13588;SDS011;6865;52.552;13.434;2023-11-18T09:11:12;6.20;;;4.77;;
13588;SDS011;6865;52.552;13.434;2023-11-18T09:13:47;7.53;;;5.73;;
13588;SDS011;6865;52.552;13.434;2023-11-18T09:16:17;7.53;;;5.03;;
13588;SDS011;6865;52.552;13.434;2023-11-18T09:18:47;8.57;;;5.40;;
13588;SDS011;6865;52.552;13.434;2023-11-18T09:21:14;8.13;;;5.40;;
13588;SDS011;6865;52.552;13.434;2023-11-18T09:23:42;7.97;;;5.07;;
13588;SDS011;6865;52.552;13.434;2023-11-18T09:26:10;7.00;;;5.17;;
13588;SDS011;6865;52.552;13.434;2023-11-18T09:28:37;10.13;;;7.50;;
13588;SDS011;6865;52.552;13.434;2023-11-18T09:31:04;8.33;;;5.70;;
13588;SDS011;6865;52.552;13.434;2023-11-18T09:33:32;9.23;;;5.70;;
13588;SDS011;6865;52.552;13.434;2023-11-18T09:36:00;7.77;;;5.63;;
13588;SDS011;6865;52.552;13.434;2023-11-18T09:38:29;7.87;;;6.07;;
13588;SDS011;6865;52.552;13.434;2023-11-18T09:40:57;7.40;;;5.30;;
13588;SDS011;6865;52.552;13.434;2023-11-18T09:43:33;6.57;;;4.90;;
13588;SDS011;6865;52.552;13.434;2023-11-18T09:46:09;6.37;;;5.40;;
13588;SDS011;6865;52.552;13.434;2023-11-18T09:48:44;8.23;;;5.60;;
13588;SDS011;6865;52.552;13.434;2023-11-18T09:51:23;8.17;;;4.83;;
13588;SDS011;6865;52.552;13.434;2023-11-18T09:53:58;9.47;;;5.07;;
13588;SDS011;6865;52.552;13.434;2023-11-18T09:56:30;7.47;;;5.40;;
13588;SDS011;6865;52.552;13.434;2023-11-18T09:59:14;7.37;;;5.57;;
13588;SDS011;6865;52.552;13.434;2023-11-18T10:01:50;8.33;;;5.53;;
13588;SDS011;6865;52.552;13.434;2023-11-18T10:04:23;7.47;;;4.93;;
13588;SDS011;6865;52.552;13.434;2023-11-18T10:06:54;19.33;;;13.50;;
13588;SDS011;6865;52.552;13.434;2023-11-18T10:09:23;9.53;;;6.97;;
13588;SDS011;6865;52.552;13.434;2023-11-18T10:12:05;7.10;;;5.80;;
13588;SDS011;6865;52.552;13.434;2023-11-18T10:14:35;6.07;;;4.73;;
13588;SDS011;6865;52.552;13.434;2023-11-18T10:17:05;9.07;;;6.10;;
13588;SDS011;6865;52.552;13.434;2023-11-18T10:20:07;4.63;;;4.17;;
13588;SDS011;6865;52.552;13.434;2023-11-18T10:22:29;7.50;;;4.00;;
13588;SDS011;6865;52.552;13.434;2023-11-18T10:24:58;5.87;;;4.00;;
13588;SDS011;6865;52.552;13.434;2023-11-18T10:27:27;5.67;;;4.17;;
13588;SDS011;6865;52.552;13.434;2023-11-18T10:29:55;4.60;;;3.87;;
13588;SDS011;6865;52.552;13.434;2023-11-18T10:32:29;4.40;;;2.90;;
13588;SDS011;6865;52.552;13.434;2023-11-18T10:35:01;4.37;;;3.90;;
13588;SDS011;6865;52.552;13.434;2023-11-18T10:37:31;5.17;;;3.97;;
13588;SDS011;6865;52.552;13.434;2023-11-18T10:39:58;4.93;;;4.17;;
13588;SDS011;6865;52.552;13.434;2023-11-18T10:42:30;5.03;;;4.00;;
13588;SDS011;6865;52.552;13.434;2023-11-18T10:44:59;5.97;;;3.87;;
13588;SDS011;6865;52.552;13.434;2023-11-18T10:47:33;8.67;;;6.47;;
13588;SDS011;6865;52.552;13.434;2023-11-18T10:50:02;6.07;;;4.90;;
13588;SDS011;6865;52.552;13.434;2023-11-18T10:52:29;8.13;;;5.67;;
13588;SDS011;6865;52.552;13.434;2023-11-18T10:55:01;9.13;;;6.00;;
13588;SDS011;6865;52.552;13.434;2023-11-18T10:57:37;7.27;;;5.33;;
13588;SDS011;6865;52.552;13.434;2023-11-18T11:00:05;8.43;;;5.43;;
13588;SDS011;6865;52.552;13.434;2023-11-18T11:02:43;5.90;;;5.13;;
13588;SDS011;6865;52.552;13.434;2023-11-18T11:05:14;7.17;;;5.23;;
13588;SDS011;6865;52.552;13.434;2023-11-18T11:08:04;7.20;;;4.33;;
13588;SDS011;6865;52.552;13.434;2023-11-18T11:10:34;5.77;;;4.63;;
13588;SDS011;6865;52.552;13.434;2023-11-18T11:13:02;5.40;;;4.03;;
13588;SDS011;6865;52.552;13.434;2023-11-18T11:15:35;8.40;;;4.37;;
13588;SDS011;6865;52.552;13.434;2023-11-18T11:18:20;4.83;;;4.07;;
13588;SDS011;6865;52.552;13.434;2023-11-18T11:20:59;6.87;;;4.67;;
13588;SDS011;6865;52.552;13.434;2023-11-18T11:23:42;5.37;;;4.47;;
13588;SDS011;6865;52.552;13.434;2023-11-18T11:34:59;5.10;;;4.40;;
13588;SDS011;6865;52.552;13.434;2023-11-18T11:37:34;5.80;;;4.83;;
13588;SDS011;6865;52.552;13.434;2023-11-18T11:40:03;6.27;;;4.60;;
13588;SDS011;6865;52.552;13.434;2023-11-18T11:42:36;6.57;;;4.70;;
13588;SDS011;6865;52.552;13.434;2023-11-18T11:45:06;5.80;;;4.77;;
13588;SDS011;6865;52.552;13.434;2023-11-18T11:47:47;6.47;;;4.83;;
13588;SDS011;6865;52.552;13.434;2023-11-18T11:50:21;6.37;;;4.90;;
13588;SDS011;6865;52.552;13.434;2023-11-18T11:53:06;7.43;;;5.30;;
13588;SDS011;6865;52.552;13.434;2023-11-18T11:55:43;7.40;;;5.07;;
13588;SDS011;6865;52.552;13.434;2023-11-18T11:58:28;6.90;;;5.30;;
13588;SDS011;6865;52.552;13.434;2023-11-18T12:03:52;6.83;;;5.30;;
13588;SDS011;6865;52.552;13.434;2023-11-18T12:06:24;8.10;;;6.40;;
13588;SDS011;6865;52.552;13.434;2023-11-18T12:08:54;6.60;;;5.47;;
13588;SDS011;6865;52.552;13.434;2023-11-18T12:11:22;9.07;;;6.93;;
13588;SDS011;6865;52.552;13.434;2023-11-18T12:14:02;11.83;;;8.07;;
13588;SDS011;6865;52.552;13.434;2023-11-18T12:19:38;10.27;;;6.60;;
13588;SDS011;6865;52.552;13.434;2023-11-18T12:22:18;9.57;;;7.10;;
13588;SDS011;6865;52.552;13.434;2023-11-18T12:33:04;8.43;;;6.33;;
13588;SDS011;6865;52.552;13.434;2023-11-18T12:35:56;9.90;;;7.70;;
13588;SDS011;6865;52.552;13.434;2023-11-18T12:41:39;7.50;;;5.60;;
13588;SDS011;6865;52.552;13.434;2023-11-18T12:44:10;6.80;;;5.33;;
13588;SDS011;6865;52.552;13.434;2023-11-18T12:46:53;6.67;;;5.10;;
13588;SDS011;6865;52.552;13.434;2023-11-18T12:49:24;8.27;;;5.57;;
13588;SDS011;6865;52.552;13.434;2023-11-18T12:51:52;8.80;;;6.00;;
13588;SDS011;6865;52.552;13.434;2023-11-18T12:54:23;8.73;;;6.10;;
13588;SDS011;6865;52.552;13.434;2023-11-18T12:56:56;9.07;;;6.33;;
13588;SDS011;6865;52.552;13.434;2023-11-18T12:59:23;7.53;;;5.93;;
13588;SDS011;6865;52.552;13.434;2023-11-18T13:01:50;9.00;;;5.37;;
13588;SDS011;6865;52.552;13.434;2023-11-18T13:04:24;7.80;;;5.67;;
13588;SDS011;6865;52.552;13.434;2023-11-18T13:06:52;8.07;;;5.27;;
13588;SDS011;6865;52.552;13.434;2023-11-18T13:09:21;6.93;;;5.13;;
13588;SDS011;6865;52.552;13.434;2023-11-18T13:11:55;7.37;;;4.77;;
13588;SDS011;6865;52.552;13.434;2023-11-18T13:14:28;4.73;;;4.00;;
13588;SDS011;6865;52.552;13.434;2023-11-18T13:17:02;5.77;;;4.37;;
13588;SDS011;6865;52.552;13.434;2023-11-18T13:19:33;5.43;;;4.30;;
13588;SDS011;6865;52.552;13.434;2023-11-18T13:22:01;6.93;;;4.30;;
13588;SDS011;6865;52.552;13.434;2023-11-18T13:24:38;4.90;;;3.90;;
13588;SDS011;6865;52.552;13.434;2023-11-18T13:27:07;5.87;;;3.90;;
13588;SDS011;6865;52.552;13.434;2023-11-18T13:29:35;6.00;;;4.17;;
13588;SDS011;6865;52.552;13.434;2023-11-18T13:32:06;9.30;;;5.03;;
13588;SDS011;6865;52.552;13.434;2023-11-18T13:34:36;8.83;;;5.07;;
13588;SDS011;6865;52.552;13.434;2023-11-18T13:37:05;7.50;;;5.67;;
13588;SDS011;6865;52.552;13.434;2023-11-18T13:39:33;7.40;;;5.43;;
13588;SDS011;6865;52.552;13.434;2023-11-18T13:44:47;7.40;;;5.70;;
13588;SDS011;6865;52.552;13.434;2023-11-18T13:47:17;8.33;;;5.33;;
13588;SDS011;6865;52.552;13.434;2023-11-18T13:49:44;7.40;;;5.53;;
13588;SDS011;6865;52.552;13.434;2023-11-18T13:52:12;7.03;;;4.80;;
13588;SDS011;6865;52.552;13.434;2023-11-18T13:54:42;6.77;;;4.70;;
13588;SDS011;6865;52.552;13.434;2023-11-18T13:57:11;8.07;;;6.00;;
13588;SDS011;6865;52.552;13.434;2023-11-18T13:59:38;8.77;;;5.40;;
13588;SDS011;6865;52.552;13.434;2023-11-18T14:02:05;7.73;;;5.73;;
13588;SDS011;6865;52.552;13.434;2023-11-18T14:04:33;8.53;;;4.70;;
13588;SDS011;6865;52.552;13.434;2023-11-18T14:07:00;7.57;;;5.60;;
13588;SDS011;6865;52.552;13.434;2023-11-18T14:09:30;6.03;;;4.67;;
13588;SDS011;6865;52.552;13.434;2023-11-18T14:12:06;6.20;;;4.57;;
13588;SDS011;6865;52.552;13.434;2023-11-18T14:14:34;6.77;;;4.00;;
13588;SDS011;6865;52.552;13.434;2023-11-18T14:17:01;4.33;;;3.67;;
13588;SDS011;6865;52.552;13.434;2023-11-18T14:19:28;4.90;;;4.00;;
13588;SDS011;6865;52.552;13.434;2023-11-18T14:21:55;5.80;;;4.10;;
13588;SDS011;6865;52.552;13.434;2023-11-18T14:24:22;5.43;;;4.20;;
13588;SDS011;6865;52.552;13.434;2023-11-18T14:26:53;5.90;;;3.90;;
13588;SDS011;6865;52.552;13.434;2023-11-18T14:29:20;6.83;;;5.30;;
13588;SDS011;6865;52.552;13.434;2023-11-18T14:31:47;9.50;;;5.60;;
13588;SDS011;6865;52.552;13.434;2023-11-18T14:34:14;7.83;;;5.50;;
13588;SDS011;6865;52.552;13.434;2023-11-18T14:36:41;6.80;;;4.97;;
13588;SDS011;6865;52.552;13.434;2023-11-18T14:39:08;7.17;;;5.07;;
13588;SDS011;6865;52.552;13.434;2023-11-18T14:41:44;6.93;;;5.03;;
13588;SDS011;6865;52.552;13.434;2023-11-18T14:44:13;7.47;;;5.17;;
13588;SDS011;6865;52.552;13.434;2023-11-18T14:46:39;8.63;;;5.47;;
13588;SDS011;6865;52.552;13.434;2023-11-18T14:49:09;8.50;;;5.70;;
13588;SDS011;6865;52.552;13.434;2023-11-18T14:51:36;8.93;;;5.80;;
13588;SDS011;6865;52.552;13.434;2023-11-18T14:54:03;8.77;;;5.90;;
13588;SDS011;6865;52.552;13.434;2023-11-18T14:56:32;10.00;;;6.57;;
13588;SDS011;6865;52.552;13.434;2023-11-18T14:59:01;12.07;;;9.47;;
13588;SDS011;6865;52.552;13.434;2023-11-18T15:01:31;10.57;;;8.10;;
13588;SDS011;6865;52.552;13.434;2023-11-18T15:04:00;11.27;;;6.93;;
13588;SDS011;6865;52.552;13.434;2023-11-18T15:06:32;10.57;;;7.00;;
13588;SDS011;6865;52.552;13.434;2023-11-18T15:08:58;10.50;;;6.57;;
13588;SDS011;6865;52.552;13.434;2023-11-18T15:11:25;10.03;;;6.77;;
13588;SDS011;6865;52.552;13.434;2023-11-18T15:13:52;10.33;;;7.03;;
13588;SDS011;6865;52.552;13.434;2023-11-18T15:16:20;9.13;;;6.50;;
13588;SDS011;6865;52.552;13.434;2023-11-18T15:18:46;8.43;;;6.00;;
13588;SDS011;6865;52.552;13.434;2023-11-18T15:21:14;8.50;;;6.07;;
13588;SDS011;6865;52.552;13.434;2023-11-18T15:23:41;8.53;;;5.70;;
13588;SDS011;6865;52.552;13.434;2023-11-18T15:26:08;8.90;;;6.40;;
13588;SDS011;6865;52.552;13.434;2023-11-18T15:28:36;9.53;;;6.47;;
13588;SDS011;6865;52.552;13.434;2023-11-18T15:31:03;8.57;;;6.10;;